Time;durP1;ratioP1;P1;durP2;ratioP2;P2;SDS_P1;SDS_P2;PMS_P1;PMS_P2;Temp;Humidity;BMP_temperature;BMP_pressure;BME280_temperature;BME280_humidity;BME280_pressure;Samples;Min_cycle;Max_cycle;Signal;HPM_P1;HPM_P2
2022/05/05 00:01:59;;;;;;;12.27;9.77;;;;;;;9.21;100.00;61786.31;5090697;28;20450;-73
2022/05/05 00:04:26;;;;;;;17.83;10.47;;;;;;;9.28;100.00;61793.78;5090715;28;20499;-72
2022/05/05 00:06:54;;;;;;;16.10;11.70;;;;;;;9.39;100.00;61807.56;5090538;28;20511;-73
2022/05/05 00:09:21;;;;;;;13.43;10.33;;;;;;;9.45;100.00;61816.00;5090724;28;20442;-72
2022/05/05 00:14:33;;;;;;;12.57;9.03;;;;;;;9.39;100.00;61805.03;5090836;28;20421;-73
2022/05/05 00:17:03;;;;;;;12.30;8.10;;;;;;;9.29;100.00;61794.88;5090539;28;20495;-73
2022/05/05 00:19:32;;;;;;;12.93;8.60;;;;;;;9.20;100.00;61785.22;5090401;28;20450;-73
2022/05/05 00:21:59;;;;;;;9.73;7.40;;;;;;;9.33;100.00;61798.59;5090644;28;20470;-73
2022/05/05 00:24:26;;;;;;;12.30;7.53;;;;;;;9.09;100.00;61773.47;5090608;28;20446;-75
2022/05/05 00:26:53;;;;;;;6.60;5.20;;;;;;;8.29;100.00;61690.47;5090299;28;20484;-72
2022/05/05 00:29:21;;;;;;;7.17;5.50;;;;;;;8.80;100.00;61744.97;5090550;28;20791;-72
2022/05/05 00:31:49;;;;;;;8.87;5.83;;;;;;;8.88;100.00;61753.53;5090463;28;20502;-73
2022/05/05 00:34:16;;;;;;;7.17;5.40;;;;;;;8.34;100.00;61698.88;5090798;28;20522;-72
2022/05/05 00:36:44;;;;;;;6.20;5.10;;;;;;;9.01;100.00;61764.91;5094146;28;20964;-72
2022/05/05 00:39:12;;;;;;;7.60;4.27;;;;;;;8.72;100.00;61733.88;5094184;28;20433;-74
2022/05/05 00:41:43;;;;;;;4.93;3.70;;;;;;;8.91;100.00;61754.22;5094264;28;20528;-74
2022/05/05 00:44:11;;;;;;;4.17;2.87;;;;;;;8.87;100.00;61746.84;5094103;28;20502;-73
2022/05/05 00:46:39;;;;;;;3.20;2.83;;;;;;;8.59;100.00;61725.06;5093868;28;20485;-74
2022/05/05 00:49:07;;;;;;;3.77;2.80;;;;;;;8.59;100.00;61717.47;5093897;28;20442;-72
2022/05/05 00:51:34;;;;;;;4.30;3.73;;;;;;;8.67;100.00;61728.56;5094542;28;20437;-73
2022/05/05 00:54:01;;;;;;;4.10;2.97;;;;;;;8.69;100.00;61733.22;5094403;28;20441;-72
2022/05/05 00:56:29;;;;;;;4.30;2.90;;;;;;;8.65;100.00;61728.41;5094018;28;20465;-72
2022/05/05 00:58:57;;;;;;;3.30;3.00;;;;;;;8.71;100.00;61732.28;5093852;28;20796;-72
2022/05/05 01:01:24;;;;;;;3.37;3.07;;;;;;;8.69;100.00;61730.69;5093585;28;20446;-72
2022/05/05 01:03:52;;;;;;;2.83;2.63;;;;;;;8.70;100.00;61731.75;5093631;28;20952;-73
2022/05/05 01:06:20;;;;;;;2.70;2.50;;;;;;;8.62;100.00;61727.72;5093662;28;20450;-72
2022/05/05 01:08:47;;;;;;;2.97;2.50;;;;;;;8.60;100.00;61721.06;5093418;28;20445;-74
2022/05/05 01:11:14;;;;;;;2.97;2.67;;;;;;;8.54;100.00;61714.66;5093632;28;20490;-72
2022/05/05 01:13:43;;;;;;;4.13;3.10;;;;;;;8.43;100.00;61707.97;5093382;28;20905;-74
2022/05/05 01:16:11;;;;;;;4.80;3.00;;;;;;;8.35;100.00;61694.34;5093517;28;20441;-74
2022/05/05 01:18:40;;;;;;;4.13;3.10;;;;;;;8.43;100.00;61700.34;5093316;28;20450;-73
2022/05/05 01:21:10;;;;;;;3.47;2.70;;;;;;;8.48;100.00;61708.22;5093235;28;20510;-73
2022/05/05 01:23:38;;;;;;;4.73;2.97;;;;;;;8.35;100.00;61691.81;5093606;28;20446;-72
2022/05/05 01:28:49;;;;;;;3.47;2.70;;;;;;;8.17;100.00;61672.53;5093270;28;21005;-72
2022/05/05 01:31:16;;;;;;;3.67;2.67;;;;;;;8.07;100.00;61661.88;5093237;28;20830;-73
2022/05/05 01:33:43;;;;;;;2.93;2.63;;;;;;;8.11;100.00;61668.66;5093115;28;20473;-72
2022/05/05 01:36:11;;;;;;;4.87;3.07;;;;;;;8.16;100.00;61676.53;5092873;28;20511;-72
2022/05/05 01:38:40;;;;;;;3.97;3.17;;;;;;;8.18;100.00;61676.16;5093217;28;20445;-71
2022/05/05 01:41:09;;;;;;;4.03;3.30;;;;;;;8.12;100.00;61669.72;5092906;28;20445;-72
2022/05/05 01:43:37;;;;;;;7.37;4.77;;;;;;;7.97;100.00;61653.72;5092781;28;20445;-72
2022/05/05 01:46:06;;;;;;;27.63;5.57;;;;;;;7.51;100.00;61608.16;5091869;28;20488;-74
2022/05/05 01:48:34;;;;;;;26.13;6.17;;;;;;;7.74;100.00;61629.13;5092389;28;20477;-73
2022/05/05 01:51:01;;;;;;;65.00;8.17;;;;;;;7.53;100.00;61610.31;5093036;28;20450;-73
2022/05/05 01:53:36;;;;;;;44.03;7.80;;;;;;;7.48;100.00;61602.44;5092829;28;20453;-74
2022/05/05 01:56:06;;;;;;;42.43;8.50;;;;;;;7.26;100.00;61578.41;5092573;28;20451;-72
2022/05/05 01:58:33;;;;;;;118.30;10.57;;;;;;;7.22;100.00;61569.63;5092400;28;20449;-72
2022/05/05 02:01:00;;;;;;;112.27;12.13;;;;;;;7.17;100.00;61566.81;5092459;28;20825;-72
2022/05/05 02:03:27;;;;;;;85.23;11.63;;;;;;;6.69;100.00;61518.09;5092606;28;20510;-75
2022/05/05 02:05:54;;;;;;;39.57;10.90;;;;;;;6.82;100.00;61529.97;5092540;28;20571;-73
2022/05/05 02:08:21;;;;;;;115.40;13.10;;;;;;;6.77;100.00;61527.19;5092367;28;20485;-72
2022/05/05 02:10:48;;;;;;;57.17;12.60;;;;;;;6.75;100.00;61524.50;5092279;28;20445;-72
2022/05/05 02:13:18;;;;;;;46.63;12.30;;;;;;;6.86;100.00;61533.19;5092126;28;20449;-73
2022/05/05 02:15:45;;;;;;;60.53;14.30;;;;;;;6.87;100.00;61534.78;5092198;28;20521;-73
2022/05/05 02:18:13;;;;;;;46.63;14.77;;;;;;;6.31;100.00;61472.50;5092324;28;20446;-72
2022/05/05 02:20:40;;;;;;;94.77;15.80;;;;;;;6.71;100.00;61520.78;5092232;28;20507;-73
2022/05/05 02:23:09;;;;;;;91.50;15.60;;;;;;;6.87;100.00;61534.25;5092153;28;20471;-74
2022/05/05 02:25:37;;;;;;;54.80;15.40;;;;;;;6.73;100.00;61522.38;5092011;28;20526;-72
2022/05/05 02:28:05;;;;;;;68.93;19.77;;;;;;;6.68;100.00;61517.03;5091952;28;21049;-72
2022/05/05 02:30:34;;;;;;;127.63;24.57;;;;;;;6.77;100.00;61529.16;5092514;28;20449;-72
2022/05/05 02:33:01;;;;;;;71.83;22.27;;;;;;;6.76;100.00;61530.66;5091863;28;20495;-73
2022/05/05 02:35:28;;;;;;;128.13;23.73;;;;;;;6.93;100.00;61546.25;5091905;28;20445;-72
2022/05/05 02:40:39;;;;;;;46.57;12.93;;;;;;;6.94;100.00;61546.78;5091870;28;20473;-72
2022/05/05 02:43:07;;;;;;;110.20;15.50;;;;;;;6.86;100.00;61541.31;5091559;28;20498;-73
2022/05/05 02:45:35;;;;;;;84.90;16.67;;;;;;;6.96;100.00;61544.41;5092230;28;20452;-73
2022/05/05 02:48:04;;;;;;;96.60;16.17;;;;;;;6.83;100.00;61535.56;5090165;28;20520;-73
2022/05/05 02:50:31;;;;;;;61.13;12.47;;;;;;;6.91;100.00;61541.03;5091610;28;20448;-73
2022/05/05 02:52:57;;;;;;;36.40;10.10;;;;;;;6.86;100.00;61533.19;5091361;28;20445;-72
2022/05/05 02:55:26;;;;;;;35.37;10.67;;;;;;;6.64;100.00;61512.78;5091559;28;20803;-71
2022/05/05 02:57:53;;;;;;;46.13;10.83;;;;;;;6.67;100.00;61515.97;5091303;28;20452;-73
2022/05/05 03:00:21;;;;;;;52.90;12.37;;;;;;;6.75;100.00;61524.50;5093790;28;20460;-72
2022/05/05 03:02:51;;;;;;;68.13;11.30;;;;;;;6.87;100.00;61537.31;5098701;28;20510;-72
2022/05/05 03:05:18;;;;;;;57.43;11.47;;;;;;;6.83;100.00;61533.03;5091546;28;20446;-72
2022/05/05 03:07:48;;;;;;;163.70;15.70;;;;;;;6.75;100.00;61527.03;5091546;28;20485;-73
2022/05/05 03:10:16;;;;;;;68.63;13.00;;;;;;;6.50;100.00;61495.31;5091433;28;20507;-72
2022/05/05 03:12:42;;;;;;;57.40;12.83;;;;;;;6.55;100.00;61505.69;5091517;28;20509;-73
2022/05/05 03:15:10;;;;;;;21.70;11.67;;;;;;;6.84;100.00;61534.13;5091231;28;20453;-74
2022/05/05 03:17:37;;;;;;;46.67;12.00;;;;;;;6.99;100.00;61550.13;5091240;28;20507;-73
2022/05/05 03:20:07;;;;;;;35.70;11.17;;;;;;;7.12;100.00;61564.00;5091090;28;20445;-72
2022/05/05 03:22:34;;;;;;;33.37;10.10;;;;;;;7.07;100.00;61558.66;5091464;28;20430;-72
2022/05/05 03:25:01;;;;;;;60.57;11.43;;;;;;;7.02;100.00;61553.34;5091360;28;20453;-72
2022/05/05 03:27:28;;;;;;;45.90;11.57;;;;;;;7.03;100.00;61554.38;5091444;28;20477;-73
2022/05/05 03:29:56;;;;;;;34.17;11.90;;;;;;;7.09;100.00;61560.78;5091336;28;20487;-73
2022/05/05 03:32:23;;;;;;;40.90;11.47;;;;;;;7.05;100.00;61556.53;5091224;28;20433;-73
2022/05/05 03:34:50;;;;;;;22.73;11.83;;;;;;;7.09;100.00;61558.25;5091465;28;20469;-73
2022/05/05 03:37:18;;;;;;;24.07;11.43;;;;;;;7.11;100.00;61562.94;5091096;28;20441;-73
2022/05/05 03:39:46;;;;;;;46.50;13.23;;;;;;;7.11;100.00;61562.94;5091194;28;20476;-73
2022/05/05 03:42:12;;;;;;;62.20;12.83;;;;;;;6.90;100.00;61537.44;5091186;28;20449;-72
2022/05/05 03:44:39;;;;;;;43.97;12.23;;;;;;;7.36;100.00;61589.63;5091102;28;20446;-73
2022/05/05 03:47:07;;;;;;;35.53;12.47;;;;;;;7.44;100.00;61598.16;5091150;28;20499;-73
2022/05/05 03:49:34;;;;;;;49.97;12.37;;;;;;;7.31;100.00;61581.22;5091013;28;20485;-73
2022/05/05 03:52:00;;;;;;;25.27;11.57;;;;;;;7.49;100.00;61597.88;5091157;28;20477;-72
2022/05/05 03:54:28;;;;;;;35.37;12.27;;;;;;;7.68;100.00;61623.81;5090885;28;21013;-73
2022/05/05 03:56:57;;;;;;;31.63;11.93;;;;;;;7.65;100.00;61623.13;5090777;28;21017;-73
2022/05/05 03:59:24;;;;;;;19.80;10.33;;;;;;;7.43;100.00;61599.63;5090981;28;20515;-71
2022/05/05 04:01:51;;;;;;;22.67;10.20;;;;;;;7.39;100.00;61592.28;5090996;28;20548;-72
2022/05/05 04:04:19;;;;;;;17.33;9.93;;;;;;;7.10;100.00;61561.34;5091106;28;20499;-74
2022/05/05 04:06:47;;;;;;;17.87;9.97;;;;;;;7.52;100.00;61606.19;5090899;28;20500;-74
2022/05/05 04:09:15;;;;;;;18.00;10.47;;;;;;;7.75;100.00;61627.69;5090328;28;20555;-73
2022/05/05 04:11:43;;;;;;;15.73;10.00;;;;;;;7.86;100.00;61642.50;5094664;28;20540;-73
2022/05/05 04:14:10;;;;;;;14.40;8.47;;;;;;;7.96;100.00;61655.16;5094938;28;21080;-73
2022/05/05 04:16:37;;;;;;;15.47;8.40;;;;;;;8.15;100.00;61675.47;5095242;28;20433;-74
2022/05/05 04:19:04;;;;;;;14.07;8.87;;;;;;;8.21;100.00;61676.81;5094843;28;20434;-73
2022/05/05 04:21:31;;;;;;;12.73;8.10;;;;;;;8.29;100.00;61690.47;5094639;28;20898;-73
2022/05/05 04:23:58;;;;;;;11.60;7.53;;;;;;;8.37;100.00;61699.03;5094519;28;20445;-72
2022/05/05 04:26:26;;;;;;;13.20;8.73;;;;;;;8.54;100.00;61712.09;5094166;28;20504;-72
2022/05/05 04:28:56;;;;;;;11.47;6.93;;;;;;;7.90;100.00;61641.16;5093962;28;20575;-73
2022/05/05 04:31:24;;;;;;;12.70;7.27;;;;;;;8.97;100.00;61760.63;5094666;28;20437;-72
2022/05/05 04:33:54;;;;;;;11.37;7.20;;;;;;;8.82;100.00;61744.03;5093969;28;21068;-73
2022/05/05 04:36:22;;;;;;;10.73;7.40;;;;;;;9.12;100.00;61776.13;5094349;28;20442;-74
2022/05/05 04:38:49;;;;;;;11.97;7.30;;;;;;;9.30;100.00;61795.94;5094106;28;20816;-73
2022/05/05 04:41:18;;;;;;;12.17;7.43;;;;;;;9.51;100.00;61819.88;5094210;28;20453;-73
2022/05/05 04:43:44;;;;;;;15.50;8.30;;;;;;;9.40;100.00;61805.56;5094297;28;20440;-72
2022/05/05 04:46:13;;;;;;;14.67;8.80;;;;;;;9.42;100.00;61805.69;5094047;28;20447;-74
2022/05/05 04:48:40;;;;;;;17.80;9.30;;;;;;;9.47;100.00;61810.50;5093967;28;20477;-72
2022/05/05 04:51:07;;;;;;;17.07;9.50;;;;;;;8.71;100.00;61727.75;5094054;28;20506;-73
2022/05/05 04:53:36;;;;;;;15.83;9.57;;;;;;;9.04;100.00;61773.19;5093587;28;20480;-74
2022/05/05 04:56:03;;;;;;;19.33;9.93;;;;;;;8.91;100.00;61753.69;5093657;28;20534;-73
2022/05/05 04:58:30;;;;;;;19.30;10.10;;;;;;;9.02;100.00;61760.34;5093920;28;20525;-72
2022/05/05 05:00:56;;;;;;;26.57;10.87;;;;;;;8.96;100.00;61759.56;5093560;28;20510;-72
2022/05/05 05:03:35;;;;;;;19.80;9.90;;;;;;;9.18;100.00;61783.09;5093077;28;20940;-71
2022/05/05 05:06:02;;;;;;;19.40;8.60;;;;;;;9.17;100.00;61782.03;5093625;28;20464;-74
2022/05/05 05:08:29;;;;;;;16.60;8.93;;;;;;;9.28;100.00;61796.31;5093509;28;20488;-73
2022/05/05 05:10:55;;;;;;;19.13;9.93;;;;;;;9.31;100.00;61799.53;5094869;28;20495;-73
2022/05/05 05:13:24;;;;;;;19.17;9.70;;;;;;;9.46;100.00;61811.97;5100524;28;20911;-74
2022/05/05 05:15:51;;;;;;;17.60;10.03;;;;;;;9.53;100.00;61819.47;5096033;28;20453;-73
2022/05/05 05:18:18;;;;;;;20.47;10.03;;;;;;;9.50;100.00;61816.25;5093576;28;20450;-74
2022/05/05 05:20:58;;;;;;;26.60;12.03;;;;;;;9.47;100.00;61813.03;5093064;28;20450;-72
2022/05/05 05:23:25;;;;;;;16.80;9.70;;;;;;;9.30;100.00;61795.94;5093412;28;20936;-74
2022/05/05 05:25:52;;;;;;;15.20;9.30;;;;;;;9.49;100.00;61820.81;5093201;28;20470;-72
2022/05/05 05:28:20;;;;;;;18.50;9.97;;;;;;;9.38;100.00;61801.94;5093223;28;20485;-73
2022/05/05 05:30:47;;;;;;;22.27;12.23;;;;;;;9.59;100.00;61828.97;5093045;28;20454;-73
2022/05/05 05:33:14;;;;;;;26.47;12.77;;;;;;;9.54;100.00;61820.53;5092882;28;20482;-73
2022/05/05 05:35:41;;;;;;;17.30;10.63;;;;;;;9.56;100.00;61825.75;5093378;28;20434;-73
2022/05/05 05:38:10;;;;;;;18.33;10.33;;;;;;;9.32;100.00;61797.53;5093673;28;20445;-73
2022/05/05 05:40:37;;;;;;;17.80;10.13;;;;;;;9.71;100.00;61838.72;5092968;28;20442;-74
2022/05/05 05:43:03;;;;;;;17.83;10.63;;;;;;;9.71;100.00;61838.72;5092867;28;20506;-74
2022/05/05 05:45:30;;;;;;;18.93;10.40;;;;;;;9.28;100.00;61788.69;5092809;28;20499;-73
2022/05/05 05:47:57;;;;;;;16.50;10.50;;;;;;;9.54;100.00;61820.53;5092881;28;20450;-72
2022/05/05 05:50:24;;;;;;;18.77;11.23;;;;;;;9.86;100.00;61852.25;5092683;28;21033;-73
2022/05/05 05:52:51;;;;;;;21.00;11.40;;;;;;;10.00;100.00;61872.31;5092923;28;20445;-73
2022/05/05 05:55:19;;;;;;;19.67;11.70;;;;;;;9.67;100.00;61834.44;5093242;28;20442;-75
2022/05/05 05:57:46;;;;;;;25.87;11.93;;;;;;;9.94;100.00;61860.81;5092708;28;20543;-75
2022/05/05 06:00:14;;;;;;;30.20;15.33;;;;;;;9.28;100.00;61793.78;5092440;28;20976;-73
2022/05/05 06:05:26;;;;;;;34.03;17.03;;;;;;;9.89;100.00;61853.44;5092625;28;20563;-73
2022/05/05 06:07:54;;;;;;;29.90;14.93;;;;;;;9.91;100.00;61860.69;5092210;28;20445;-72
2022/05/05 06:10:22;;;;;;;25.03;13.37;;;;;;;10.01;100.00;61865.75;5092190;28;20506;-74
2022/05/05 06:12:49;;;;;;;24.33;13.23;;;;;;;9.20;100.00;61787.78;5093284;28;20463;-72
2022/05/05 06:15:16;;;;;;;23.57;13.63;;;;;;;9.48;100.00;61814.13;5092980;28;20449;-73
2022/05/05 06:17:43;;;;;;;33.27;14.17;;;;;;;9.75;100.00;61843.00;5092078;28;20438;-73
2022/05/05 06:20:10;;;;;;;28.90;14.60;;;;;;;10.05;100.00;61875.13;5092271;28;20493;-72
2022/05/05 06:22:37;;;;;;;24.90;14.07;;;;;;;10.14;100.00;61884.78;5092279;28;20446;-72
2022/05/05 06:25:05;;;;;;;28.83;14.17;;;;;;;10.16;100.00;61886.94;5091985;28;20469;-73
2022/05/05 06:27:34;;;;;;;25.07;13.23;;;;;;;10.41;100.00;61913.16;5092077;28;21022;-73
2022/05/05 06:30:01;;;;;;;26.00;12.50;;;;;;;10.69;100.00;61948.78;5091760;28;20497;-73
2022/05/05 06:32:30;;;;;;;21.13;12.33;;;;;;;10.74;100.00;61949.06;5091447;28;20460;-73
2022/05/05 06:34:57;;;;;;;24.50;12.20;;;;;;;10.82;100.00;61954.53;5091883;28;20481;-72
2022/05/05 06:37:24;;;;;;;25.27;13.33;;;;;;;10.62;100.00;61938.75;5091724;28;21009;-72
2022/05/05 06:39:51;;;;;;;19.90;12.87;;;;;;;11.22;100.00;61999.41;5091704;28;20199;-73
2022/05/05 06:42:18;;;;;;;23.17;12.30;;;;;;;11.66;100.00;62044.06;5092164;28;20199;-73
2022/05/05 06:44:46;;;;;;;25.33;13.03;;;;;;;11.86;100.00;62068.63;5091574;28;20437;-72
2022/05/05 06:47:13;;;;;;;25.87;14.50;;;;;;;11.93;100.00;62069.94;5091899;28;20199;-74
2022/05/05 06:49:40;;;;;;;27.47;14.53;;;;;;;12.02;100.00;62080.13;5091301;28;20224;-73
2022/05/05 06:52:07;;;;;;;40.57;15.80;;;;;;;12.17;100.00;62101.34;5091683;28;20294;-75
2022/05/05 06:54:34;;;;;;;34.57;17.77;;;;;;;12.00;100.00;62077.97;5091027;28;20256;-73
2022/05/05 06:57:01;;;;;;;38.77;19.07;;;;;;;12.12;100.00;62095.97;5091597;28;20261;-74
2022/05/05 06:59:28;;;;;;;33.60;17.93;;;;;;;12.14;100.00;62095.00;5091448;28;20662;-72
2022/05/05 07:02:01;;;;;;;29.27;17.03;;;;;;;11.52;100.00;62029.56;5091064;28;20780;-72
2022/05/05 07:07:14;;;;;;;31.07;16.97;;;;;;;12.10;100.00;62093.81;5091199;28;20211;-73
2022/05/05 07:12:26;;;;;;;33.97;16.87;;;;;;;12.15;100.00;62098.66;5091452;28;20202;-73
2022/05/05 07:14:53;;;;;;;25.70;14.47;;;;;;;12.11;100.00;62094.34;5091183;28;20195;-72
2022/05/05 07:17:23;;;;;;;24.73;14.13;;;;;;;11.97;100.00;62085.00;5091629;28;20294;-74
2022/05/05 07:19:50;;;;;;;22.73;13.97;;;;;;;12.12;100.00;62095.97;5091492;28;20645;-72
2022/05/05 07:22:17;;;;;;;22.53;14.20;;;;;;;12.30;100.00;62115.28;5092908;28;20198;-73
2022/05/05 07:24:46;;;;;;;24.40;13.37;;;;;;;12.81;100.00;62166.94;5097194;28;20220;-72
2022/05/05 07:27:13;;;;;;;23.17;12.60;;;;;;;13.10;100.00;62200.13;5091099;28;20283;-73
2022/05/05 07:29:41;;;;;;;18.00;11.67;;;;;;;13.15;100.00;62208.03;5091141;28;20223;-73
2022/05/05 07:32:11;;;;;;;18.97;13.00;;;;;;;13.57;100.00;62248.03;5090892;28;20195;-72
2022/05/05 07:34:40;;;;;;;19.27;12.83;;;;;;;14.01;100.00;62297.34;5091298;28;20227;-73
2022/05/05 07:37:08;;;;;;;19.20;12.67;;;;;;;14.10;100.00;62312.69;5091115;28;20299;-72
2022/05/05 07:39:34;;;;;;;21.00;11.43;;;;;;;14.72;100.00;62373.16;5091083;28;20632;-73
2022/05/05 07:42:04;;;;;;;19.23;12.37;;;;;;;14.90;100.00;62393.09;5090864;28;20280;-73
2022/05/05 07:44:31;;;;;;;19.63;11.40;;;;;;;15.25;100.00;62430.22;5093179;28;20290;-72
2022/05/05 07:46:59;;;;;;;20.97;11.13;;;;;;;15.22;100.00;62422.38;5095159;28;20218;-72
2022/05/05 07:49:26;;;;;;;19.50;11.50;;;;;;;15.29;100.00;62434.50;5095058;28;20658;-73
2022/05/05 07:51:57;;;;;;;30.37;13.20;;;;;;;14.78;100.00;62379.63;5094838;28;20199;-73
2022/05/05 07:54:38;;;;;;;22.17;11.50;;;;;;;14.50;100.00;62344.94;5089458;28;20724;-73
2022/05/05 07:57:08;;;;;;;25.13;11.97;;;;;;;15.16;100.00;62421.06;5094811;28;20582;-74
2022/05/05 07:59:35;;;;;;;22.23;11.67;;;;;;;13.71;100.00;62260.53;5095340;28;20203;-72
2022/05/05 08:02:02;;;;;;;22.20;12.47;;;;;;;15.59;100.00;62466.81;5095781;28;20191;-73
2022/05/05 08:04:32;;;;;;;24.43;12.30;;;;;;;16.21;100.00;62532.50;5094841;28;20196;-73
2022/05/05 08:07:00;;;;;;;20.23;11.93;;;;;;;16.16;100.00;62527.13;5094472;28;20212;-72
2022/05/05 08:09:28;;;;;;;20.13;13.20;;;;;;;16.10;100.00;62518.09;5094614;28;20276;-74
2022/05/05 08:11:55;;;;;;;21.83;12.77;;;;;;;16.23;100.00;62529.53;5094390;28;20196;-72
2022/05/05 08:14:22;;;;;;;18.53;10.90;;;;;;;15.42;100.00;62448.50;5094454;28;20666;-73
2022/05/05 08:16:49;;;;;;;17.93;12.07;;;;;;;16.43;100.00;62556.22;5094220;28;20659;-74
2022/05/05 08:19:15;;;;;;;16.43;11.90;;;;;;;16.86;100.00;62597.94;5094534;28;20196;-73
2022/05/05 08:21:42;;;;;;;16.40;11.40;;;;;;;17.10;100.00;62625.88;5094593;28;20252;-74
2022/05/05 08:29:49;;;;;;;23.80;9.77;;;;;;;17.84;100.00;62704.59;5094433;28;20234;-74
2022/05/05 08:32:17;;;;;;;16.10;10.43;;;;;;;17.85;100.00;62703.66;5094478;28;20200;-73
2022/05/05 08:34:44;;;;;;;12.83;9.23;;;;;;;17.78;100.00;62695.56;5094366;28;20327;-74
2022/05/05 08:37:11;;;;;;;14.30;9.23;;;;;;;17.73;100.00;62701.56;5094583;28;20199;-73
2022/05/05 08:39:42;;;;;;;17.13;9.63;;;;;;;18.09;100.00;62732.13;5094366;28;20204;-74
2022/05/05 08:42:09;;;;;;;16.67;10.30;;;;;;;18.42;100.00;62767.75;5094382;28;20199;-74
2022/05/05 08:44:35;;;;;;;13.50;9.60;;;;;;;18.76;100.00;62803.38;5093830;28;20195;-72
2022/05/05 08:47:03;;;;;;;21.90;9.77;;;;;;;19.16;100.00;62847.13;5093678;28;20262;-73
2022/05/05 08:49:31;;;;;;;21.23;10.27;;;;;;;19.14;100.00;62844.97;5094057;28;20586;-73
2022/05/05 08:52:03;;;;;;;20.17;9.00;;;;;;;19.40;100.00;62874.59;5094052;28;20203;-73
2022/05/05 08:54:33;;;;;;;16.67;9.83;;;;;;;19.32;100.00;62867.00;5093980;28;20191;-72
2022/05/05 08:57:08;;;;;;;19.20;9.07;;;;;;;19.71;100.00;62908.06;5092808;28;20200;-73
2022/05/05 08:59:35;;;;;;;22.17;10.27;;;;;;;19.86;100.00;62919.13;5093371;28;20218;-72
2022/05/05 09:02:02;;;;;;;15.73;10.00;;;;;;;19.13;100.00;62843.88;5093682;28;20199;-73
2022/05/05 09:04:29;;;;;;;21.43;11.57;;;;;;;19.83;100.00;62919.00;5093657;28;20191;-74
2022/05/05 09:06:55;;;;;;;17.67;10.50;;;;;;;18.98;100.00;62825.09;5093382;28;20200;-72
2022/05/05 09:09:27;;;;;;;24.37;10.17;;;;;;;19.64;100.00;62900.50;5093974;28;20656;-71
2022/05/05 09:12:12;;;;;;;14.77;9.03;;;;;;;19.88;100.00;62926.97;5093305;28;20196;-73
2022/05/05 09:14:41;;;;;;;18.13;9.17;;;;;;;20.00;100.00;62939.41;5093449;28;20573;-73
2022/05/05 09:17:10;;;;;;;16.97;8.60;;;;;;;19.44;100.00;62879.44;5093220;28;20582;-73
2022/05/05 09:19:39;;;;;;;19.50;7.30;;;;;;;20.24;100.00;62965.38;5093014;28;20231;-73
2022/05/05 09:22:07;;;;;;;19.00;8.17;;;;;;;20.34;100.00;62976.22;5092942;28;20210;-73
2022/05/05 09:24:41;;;;;;;16.20;8.60;;;;;;;20.27;100.00;62966.03;5092827;28;20192;-73
2022/05/05 09:27:22;;;;;;;13.03;8.00;;;;;;;20.51;100.00;62994.56;5093197;28;20207;-73
2022/05/05 09:30:06;;;;;;;20.13;10.23;;;;;;;20.66;100.00;63008.22;5092895;28;20219;-73
2022/05/05 09:32:35;;;;;;;16.93;8.50;;;;;;;20.48;100.00;62985.63;5095256;28;20195;-72
2022/05/05 09:35:05;;;;;;;16.30;7.93;;;;;;;20.98;100.00;63048.03;5095879;28;20330;-73
2022/05/05 09:37:32;;;;;;;12.23;7.60;;;;;;;21.25;100.00;63074.13;5092753;28;20287;-74
2022/05/05 09:40:00;;;;;;;16.40;7.37;;;;;;;20.68;100.00;63012.97;5092473;28;20200;-73
2022/05/05 09:42:40;;;;;;;11.33;5.97;;;;;;;21.43;100.00;63093.06;5092533;28;20191;-73
2022/05/05 09:45:22;;;;;;;13.63;6.30;;;;;;;22.02;100.00;63156.41;5092720;28;20206;-73
2022/05/05 09:47:50;;;;;;;9.40;6.13;;;;;;;22.22;100.00;63178.63;5093672;28;20249;-73
2022/05/05 09:50:20;;;;;;;9.53;6.00;;;;;;;22.03;100.00;63158.06;5092516;28;20789;-73
2022/05/05 09:58:22;;;;;;;14.40;6.17;;;;;;;22.72;100.00;63236.94;5092611;28;20629;-74
2022/05/05 10:00:57;;;;;;;14.33;6.43;;;;;;;23.12;100.00;63269.91;5092237;28;20624;-73
2022/05/05 10:06:17;;;;;;;13.97;6.33;;;;;;;23.42;100.00;63308.16;5092525;28;20580;-74
2022/05/05 10:08:46;;;;;;;11.07;5.20;;;;;;;23.22;100.00;63288.53;5091231;28;20284;-73
2022/05/05 10:11:15;;;;;;;10.10;6.03;;;;;;;23.64;100.00;63328.91;5092545;28;20258;-72
2022/05/05 10:13:45;;;;;;;9.17;5.53;;;;;;;23.39;100.00;63301.78;5092622;28;20274;-73
2022/05/05 10:16:14;;;;;;;13.90;5.87;;;;;;;23.64;100.00;63326.28;5092433;28;20210;-74
2022/05/05 10:18:42;;;;;;;10.93;6.30;;;;;;;23.60;100.00;63332.38;5092706;28;20204;-73
2022/05/05 10:21:27;;;;;;;12.10;5.30;;;;;;;23.92;100.00;63353.50;5092493;28;20191;-74
2022/05/05 10:24:05;;;;;;;12.57;6.10;;;;;;;23.49;100.00;63315.22;5092475;28;20282;-73
2022/05/05 10:26:33;;;;;;;9.00;4.73;;;;;;;23.51;100.00;63312.19;5092278;28;20690;-73
2022/05/05 10:29:02;;;;;;;11.80;4.67;;;;;;;23.43;100.00;63306.13;5092076;28;20199;-74
2022/05/05 10:31:46;;;;;;;6.50;4.37;;;;;;;23.59;100.00;63322.91;5091938;28;20227;-72
2022/05/05 10:34:19;;;;;;;12.13;4.30;;;;;;;23.83;100.00;63349.50;5090361;28;20245;-73
2022/05/05 10:37:04;;;;;;;8.30;3.40;;;;;;;24.15;100.00;63381.63;5091667;28;20637;-73
2022/05/05 10:39:44;;;;;;;12.87;3.50;;;;;;;24.00;100.00;63367.94;5091563;28;20196;-73
2022/05/05 10:42:19;;;;;;;4.07;2.60;;;;;;;24.36;100.00;63409.09;5091637;28;20285;-73
2022/05/05 10:45:12;;;;;;;13.40;3.63;;;;;;;24.33;100.00;63406.38;5091670;28;20263;-72
2022/05/05 10:48:15;;;;;;;6.80;3.00;;;;;;;24.48;100.00;63418.94;5091616;28;20204;-73
2022/05/05 10:50:50;;;;;;;8.97;4.20;;;;;;;24.09;100.00;63380.31;5088812;28;20280;-76
2022/05/05 10:53:28;;;;;;;6.37;2.97;;;;;;;24.50;100.00;63423.72;5091877;28;20286;-74
2022/05/05 10:55:55;;;;;;;3.00;2.33;;;;;;;24.62;100.00;63432.09;5091357;28;20658;-74
2022/05/05 10:58:56;;;;;;;6.73;2.80;;;;;;;25.30;100.00;63504.84;5091702;28;20192;-74
2022/05/05 11:01:24;;;;;;;5.87;2.70;;;;;;;25.59;100.00;63542.16;5091911;28;20558;-72
2022/05/05 11:04:28;;;;;;;2.83;2.20;;;;;;;25.72;88.36;63556.25;5091726;28;20209;-74
2022/05/05 11:07:40;;;;;;;3.90;2.10;;;;;;;25.73;94.10;63554.19;5091497;28;20197;-72
2022/05/05 11:10:14;;;;;;;4.40;2.17;;;;;;;25.75;88.98;63554.31;5082782;28;20230;-74
2022/05/05 11:12:41;;;;;;;5.93;2.10;;;;;;;25.78;80.78;63559.63;5091285;28;20193;-72
2022/05/05 11:23:46;;;;;;;4.90;2.20;;;;;;;25.18;95.17;63497.56;5091649;28;20229;-74
2022/05/05 11:26:17;;;;;;;3.77;2.43;;;;;;;25.21;91.34;63500.84;5091384;28;20230;-74
2022/05/05 11:28:44;;;;;;;3.43;2.50;;;;;;;24.64;90.07;63438.94;5091353;28;20622;-74
2022/05/05 11:31:21;;;;;;;8.50;2.97;;;;;;;24.39;100.00;63412.31;5094150;28;20229;-72
2022/05/05 11:34:07;;;;;;;3.20;2.53;;;;;;;22.98;100.00;63265.13;5095191;28;20235;-73
2022/05/05 11:36:37;;;;;;;15.63;3.20;;;;;;;22.41;100.00;63198.66;5091434;28;20642;-74
2022/05/05 11:39:07;;;;;;;5.67;2.20;;;;;;;22.13;100.00;63168.88;5090819;28;20199;-73
2022/05/05 11:41:35;;;;;;;4.43;2.47;;;;;;;21.86;100.00;63139.63;5091701;28;20199;-72
2022/05/05 11:44:19;;;;;;;3.47;2.80;;;;;;;21.54;100.00;63104.97;5090400;28;20199;-74
2022/05/05 11:46:47;;;;;;;8.70;2.70;;;;;;;21.99;100.00;63153.72;5091503;28;20206;-73
2022/05/05 11:49:16;;;;;;;4.97;2.80;;;;;;;22.22;100.00;63181.22;5090906;28;20199;-73
2022/05/05 11:51:43;;;;;;;2.30;2.10;;;;;;;22.39;100.00;63196.50;5090784;28;20320;-74
2022/05/05 11:54:11;;;;;;;4.30;2.70;;;;;;;22.44;100.00;63202.44;5091269;28;20207;-73
2022/05/05 11:56:43;;;;;;;3.47;2.20;;;;;;;23.25;100.00;63289.19;5090880;28;20227;-75
2022/05/05 12:02:00;;;;;;;8.93;2.30;;;;;;;24.07;100.00;63377.59;5090723;28;20610;-73
2022/05/05 12:04:29;;;;;;;2.60;2.27;;;;;;;25.03;90.59;63481.81;5090869;28;20200;-72
2022/05/05 12:06:59;;;;;;;6.13;2.50;;;;;;;25.56;87.74;63538.31;5090563;28;20723;-75
2022/05/05 12:09:27;;;;;;;2.20;2.00;;;;;;;25.90;77.91;63575.81;5090547;28;20236;-73
2022/05/05 12:11:54;;;;;;;9.93;3.13;;;;;;;25.80;69.27;63559.72;5090685;28;20279;-73